sensor_id;sensor_type;location;lat;lon;timestamp;pressure;altitude;pressure_sealevel;temperature;humidity
14293;BME280;62290;59.420;17.842;2022-11-15T00:02:37;101593.38;;;21.91;36.68
14293;BME280;62290;59.420;17.842;2022-11-15T00:05:23;101586.31;;;21.90;36.38
14293;BME280;62290;59.420;17.842;2022-11-15T00:08:11;101576.50;;;21.89;36.68
14293;BME280;62290;59.420;17.842;2022-11-15T00:10:59;101576.50;;;21.89;36.30
14293;BME280;62290;59.420;17.842;2022-11-15T00:13:46;101577.47;;;21.88;36.56
14293;BME280;62290;59.420;17.842;2022-11-15T00:16:32;101563.22;;;21.87;36.36
14293;BME280;62290;59.420;17.842;2022-11-15T00:19:18;101558.78;;;21.86;36.52
14293;BME280;62290;59.420;17.842;2022-11-15T00:22:05;101566.84;;;21.86;36.32
14293;BME280;62290;59.420;17.842;2022-11-15T00:24:53;101574.91;;;21.86;36.18
14293;BME280;62290;59.420;17.842;2022-11-15T00:27:39;101563.03;;;21.76;36.46
14293;BME280;62290;59.420;17.842;2022-11-15T00:30:26;101566.25;;;21.81;36.09
14293;BME280;62290;59.420;17.842;2022-11-15T00:33:13;101565.19;;;21.84;36.50
14293;BME280;62290;59.420;17.842;2022-11-15T00:36:00;101552.72;;;21.83;36.28
14293;BME280;62290;59.420;17.842;2022-11-15T00:38:47;101551.88;;;21.82;35.90
14293;BME280;62290;59.420;17.842;2022-11-15T00:41:35;101541.13;;;21.82;36.02
14293;BME280;62290;59.420;17.842;2022-11-15T00:44:21;101550.16;;;21.81;36.25
14293;BME280;62290;59.420;17.842;2022-11-15T00:47:08;101552.94;;;21.80;35.92
14293;BME280;62290;59.420;17.842;2022-11-15T00:49:54;101550.69;;;21.74;36.12
14293;BME280;62290;59.420;17.842;2022-11-15T00:52:41;101557.34;;;21.81;35.88
14293;BME280;62290;59.420;17.842;2022-11-15T00:55:27;101559.16;;;21.80;35.96
14293;BME280;62290;59.420;17.842;2022-11-15T00:58:15;101557.34;;;21.81;36.09
14293;BME280;62290;59.420;17.842;2022-11-15T01:01:06;101545.66;;;21.82;35.97
14293;BME280;62290;59.420;17.842;2022-11-15T01:03:53;101553.91;;;21.79;35.76
14293;BME280;62290;59.420;17.842;2022-11-15T01:06:45;101562.81;;;21.79;36.02
14293;BME280;62290;59.420;17.842;2022-11-15T01:09:32;101569.25;;;21.77;35.76
14293;BME280;62290;59.420;17.842;2022-11-15T01:12:18;101574.63;;;21.77;35.85
14293;BME280;62290;59.420;17.842;2022-11-15T01:15:07;101571.94;;;21.77;35.80
14293;BME280;62290;59.420;17.842;2022-11-15T01:17:54;101570.22;;;21.76;35.90
14293;BME280;62290;59.420;17.842;2022-11-15T01:20:41;101567.53;;;21.76;36.05
14293;BME280;62290;59.420;17.842;2022-11-15T01:23:28;101571.06;;;21.76;35.67
14293;BME280;62290;59.420;17.842;2022-11-15T01:26:16;101554.94;;;21.64;35.69
14293;BME280;62290;59.420;17.842;2022-11-15T01:29:03;101570.22;;;21.76;35.71
14293;BME280;62290;59.420;17.842;2022-11-15T01:31:52;101576.44;;;21.76;35.72
14293;BME280;62290;59.420;17.842;2022-11-15T01:34:39;101577.50;;;21.74;35.78
14293;BME280;62290;59.420;17.842;2022-11-15T01:37:25;101583.81;;;21.73;35.61
14293;BME280;62290;59.420;17.842;2022-11-15T01:40:11;101583.94;;;21.71;35.38
14293;BME280;62290;59.420;17.842;2022-11-15T01:42:58;101589.31;;;21.71;35.42
14293;BME280;62290;59.420;17.842;2022-11-15T01:45:46;101581.25;;;21.71;35.24
14293;BME280;62290;59.420;17.842;2022-11-15T01:48:38;101582.31;;;21.69;35.35
14293;BME280;62290;59.420;17.842;2022-11-15T01:51:26;101572.53;;;21.68;35.66
14293;BME280;62290;59.420;17.842;2022-11-15T01:54:19;101577.16;;;21.66;35.69
14293;BME280;62290;59.420;17.842;2022-11-15T01:57:09;101564.88;;;21.62;35.62
14293;BME280;62290;59.420;17.842;2022-11-15T01:59:57;101571.88;;;21.64;35.66
14293;BME280;62290;59.420;17.842;2022-11-15T02:02:46;101571.97;;;21.63;35.39
14293;BME280;62290;59.420;17.842;2022-11-15T02:05:35;101562.13;;;21.63;35.24
14293;BME280;62290;59.420;17.842;2022-11-15T02:08:23;101568.53;;;21.61;35.64
14293;BME280;62290;59.420;17.842;2022-11-15T02:11:09;101570.25;;;21.62;35.67
14293;BME280;62290;59.420;17.842;2022-11-15T02:13:56;101565.75;;;21.62;35.59
14293;BME280;62290;59.420;17.842;2022-11-15T02:16:50;101559.50;;;21.62;35.51
14293;BME280;62290;59.420;17.842;2022-11-15T02:20:08;101567.56;;;21.62;35.48
14293;BME280;62290;59.420;17.842;2022-11-15T02:23:20;101573.97;;;21.59;35.53
14293;BME280;62290;59.420;17.842;2022-11-15T02:30:03;101583.22;;;21.55;35.33
14293;BME280;62290;59.420;17.842;2022-11-15T02:32:54;101579.66;;;21.54;35.20
14293;BME280;62290;59.420;17.842;2022-11-15T02:35:52;101579.59;;;21.56;35.06
14293;BME280;62290;59.420;17.842;2022-11-15T02:38:46;101578.91;;;21.52;35.36
14293;BME280;62290;59.420;17.842;2022-11-15T02:41:42;101584.28;;;21.52;35.12
14293;BME280;62290;59.420;17.842;2022-11-15T02:44:36;101590.59;;;21.51;34.88
14293;BME280;62290;59.420;17.842;2022-11-15T02:47:24;101584.47;;;21.49;35.14
14293;BME280;62290;59.420;17.842;2022-11-15T02:50:17;101585.41;;;21.48;35.13
14293;BME280;62290;59.420;17.842;2022-11-15T02:53:05;101577.88;;;21.41;35.31
14293;BME280;62290;59.420;17.842;2022-11-15T02:55:51;101579.50;;;21.43;35.07
14293;BME280;62290;59.420;17.842;2022-11-15T02:59:00;101584.47;;;21.35;35.08
14293;BME280;62290;59.420;17.842;2022-11-15T03:02:04;101599.31;;;21.41;35.14
14293;BME280;62290;59.420;17.842;2022-11-15T03:04:57;101590.72;;;21.36;35.20
14293;BME280;62290;59.420;17.842;2022-11-15T03:07:53;101582.41;;;21.26;34.95
14293;BME280;62290;59.420;17.842;2022-11-15T03:10:52;101584.78;;;21.31;35.17
14293;BME280;62290;59.420;17.842;2022-11-15T03:13:48;101592.19;;;21.27;35.27
14293;BME280;62290;59.420;17.842;2022-11-15T03:16:42;101596.75;;;21.25;35.19
14293;BME280;62290;59.420;17.842;2022-11-15T03:19:35;101579.91;;;21.23;35.20
14293;BME280;62290;59.420;17.842;2022-11-15T03:22:28;101585.16;;;21.25;35.34
14293;BME280;62290;59.420;17.842;2022-11-15T03:25:19;101584.22;;;21.26;35.20
14293;BME280;62290;59.420;17.842;2022-11-15T03:28:09;101576.00;;;21.15;35.28
14293;BME280;62290;59.420;17.842;2022-11-15T03:30:59;101597.06;;;21.21;34.89
14293;BME280;62290;59.420;17.842;2022-11-15T03:34:11;101606.91;;;21.20;35.10
14293;BME280;62290;59.420;17.842;2022-11-15T03:36:59;101594.56;;;21.18;35.29
14293;BME280;62290;59.420;17.842;2022-11-15T03:39:46;101602.59;;;21.18;34.95
14293;BME280;62290;59.420;17.842;2022-11-15T03:42:38;101601.75;;;21.17;35.28
14293;BME280;62290;59.420;17.842;2022-11-15T03:45:29;101599.16;;;21.16;35.07
14293;BME280;62290;59.420;17.842;2022-11-15T03:48:21;101598.31;;;21.15;34.88
14293;BME280;62290;59.420;17.842;2022-11-15T03:51:10;101601.16;;;21.12;35.24
14293;BME280;62290;59.420;17.842;2022-11-15T03:53:57;101592.28;;;21.12;35.28
14293;BME280;62290;59.420;17.842;2022-11-15T03:56:43;101600.22;;;21.13;35.17
14293;BME280;62290;59.420;17.842;2022-11-15T03:59:31;101606.66;;;21.11;34.90
14293;BME280;62290;59.420;17.842;2022-11-15T04:02:17;101604.16;;;21.08;35.33
14293;BME280;62290;59.420;17.842;2022-11-15T04:05:04;101595.41;;;21.04;35.02
14293;BME280;62290;59.420;17.842;2022-11-15T04:07:50;101600.97;;;21.01;34.94
14293;BME280;62290;59.420;17.842;2022-11-15T04:10:37;101610.91;;;20.99;35.20
14293;BME280;62290;59.420;17.842;2022-11-15T04:13:23;101607.47;;;20.97;35.31
14293;BME280;62290;59.420;17.842;2022-11-15T04:16:11;101625.34;;;20.97;35.02
14293;BME280;62290;59.420;17.842;2022-11-15T04:18:57;101620.97;;;20.96;35.33
14293;BME280;62290;59.420;17.842;2022-11-15T04:22:01;101620.47;;;20.89;34.94
14293;BME280;62290;59.420;17.842;2022-11-15T04:25:02;101621.44;;;20.88;35.07
14293;BME280;62290;59.420;17.842;2022-11-15T04:27:48;101616.28;;;20.85;34.97
14293;BME280;62290;59.420;17.842;2022-11-15T04:30:35;101618.09;;;20.84;35.05
14293;BME280;62290;59.420;17.842;2022-11-15T04:33:23;101617.13;;;20.85;35.13
14293;BME280;62290;59.420;17.842;2022-11-15T04:36:09;101619.91;;;20.84;35.31
14293;BME280;62290;59.420;17.842;2022-11-15T04:39:13;101626.41;;;20.80;35.41
14293;BME280;62290;59.420;17.842;2022-11-15T04:41:59;101626.41;;;20.80;35.08
14293;BME280;62290;59.420;17.842;2022-11-15T04:44:45;101630.72;;;20.82;35.31
14293;BME280;62290;59.420;17.842;2022-11-15T04:47:32;101619.13;;;20.82;35.10
14293;BME280;62290;59.420;17.842;2022-11-15T04:50:19;101619.91;;;20.84;34.98
14293;BME280;62290;59.420;17.842;2022-11-15T04:53:06;101621.63;;;20.85;35.00
14293;BME280;62290;59.420;17.842;2022-11-15T04:55:53;101613.59;;;20.85;35.33
14293;BME280;62290;59.420;17.842;2022-11-15T04:58:39;101613.97;;;20.79;34.97
14293;BME280;62290;59.420;17.842;2022-11-15T05:01:25;101626.22;;;20.83;35.02
14293;BME280;62290;59.420;17.842;2022-11-15T05:04:12;101625.38;;;20.82;34.98
14293;BME280;62290;59.420;17.842;2022-11-15T05:07:08;101617.31;;;20.82;34.93
14293;BME280;62290;59.420;17.842;2022-11-15T05:09:55;101629.84;;;20.82;35.09
14293;BME280;62290;59.420;17.842;2022-11-15T05:12:41;101629.97;;;20.80;35.30
14293;BME280;62290;59.420;17.842;2022-11-15T05:15:28;101624.69;;;20.79;35.23
14293;BME280;62290;59.420;17.842;2022-11-15T05:18:14;101633.59;;;20.79;34.97
14293;BME280;62290;59.420;17.842;2022-11-15T05:21:09;101627.34;;;20.79;35.26
14293;BME280;62290;59.420;17.842;2022-11-15T05:23:57;101624.78;;;20.77;35.35
14293;BME280;62290;59.420;17.842;2022-11-15T05:26:44;101617.22;;;20.70;35.08
14293;BME280;62290;59.420;17.842;2022-11-15T05:29:30;101606.50;;;20.70;35.25
14293;BME280;62290;59.420;17.842;2022-11-15T05:32:17;101618.75;;;20.74;35.19
14293;BME280;62290;59.420;17.842;2022-11-15T05:35:05;101628.59;;;20.73;35.10
14293;BME280;62290;59.420;17.842;2022-11-15T05:37:53;101627.94;;;20.70;35.58
14293;BME280;62290;59.420;17.842;2022-11-15T05:40:40;101629.63;;;20.71;35.58
14293;BME280;62290;59.420;17.842;2022-11-15T05:43:28;101632.50;;;20.68;35.49
14293;BME280;62290;59.420;17.842;2022-11-15T05:46:16;101631.66;;;20.67;35.27
14293;BME280;62290;59.420;17.842;2022-11-15T05:49:05;101639.69;;;20.67;35.38
14293;BME280;62290;59.420;17.842;2022-11-15T05:51:54;101642.38;;;20.67;35.56
14293;BME280;62290;59.420;17.842;2022-11-15T05:54:41;101646.75;;;20.68;35.17
14293;BME280;62290;59.420;17.842;2022-11-15T05:57:29;101646.75;;;20.68;35.42
14293;BME280;62290;59.420;17.842;2022-11-15T06:00:16;101659.28;;;20.68;35.01
14293;BME280;62290;59.420;17.842;2022-11-15T06:03:02;101653.16;;;20.66;35.25
14293;BME280;62290;59.420;17.842;2022-11-15T06:05:49;101661.97;;;20.68;35.05
14293;BME280;62290;59.420;17.842;2022-11-15T06:08:35;101652.47;;;20.62;35.09
14293;BME280;62290;59.420;17.842;2022-11-15T06:11:22;101660.91;;;20.70;34.83
14293;BME280;62290;59.420;17.842;2022-11-15T06:14:09;101663.53;;;20.72;35.15
14293;BME280;62290;59.420;17.842;2022-11-15T06:16:56;101670.69;;;20.71;34.93
14293;BME280;62290;59.420;17.842;2022-11-15T06:19:42;101663.41;;;20.73;35.25
14293;BME280;62290;59.420;17.842;2022-11-15T06:22:28;101673.25;;;20.73;34.93
14293;BME280;62290;59.420;17.842;2022-11-15T06:25:15;101672.31;;;20.74;34.86
14293;BME280;62290;59.420;17.842;2022-11-15T06:28:01;101688.41;;;20.74;35.15
14293;BME280;62290;59.420;17.842;2022-11-15T06:30:49;101668.13;;;20.70;35.03
14293;BME280;62290;59.420;17.842;2022-11-15T06:33:37;101686.88;;;20.70;34.69
14293;BME280;62290;59.420;17.842;2022-11-15T06:36:24;101690.13;;;20.75;34.60
14293;BME280;62290;59.420;17.842;2022-11-15T06:39:10;101653.31;;;20.49;34.49
14293;BME280;62290;59.420;17.842;2022-11-15T06:41:57;101696.59;;;20.71;34.54
14293;BME280;62290;59.420;17.842;2022-11-15T06:44:43;101693.94;;;20.71;34.70
14293;BME280;62290;59.420;17.842;2022-11-15T06:47:31;101707.31;;;20.71;34.64
14293;BME280;62290;59.420;17.842;2022-11-15T06:50:17;101719.00;;;20.70;34.79
14293;BME280;62290;59.420;17.842;2022-11-15T06:53:03;101698.41;;;20.70;34.42
14293;BME280;62290;59.420;17.842;2022-11-15T06:55:50;101710.97;;;20.70;34.32
14293;BME280;62290;59.420;17.842;2022-11-15T06:58:40;101712.09;;;20.66;34.50
14293;BME280;62290;59.420;17.842;2022-11-15T07:01:26;101705.69;;;20.68;34.50
14293;BME280;62290;59.420;17.842;2022-11-15T07:04:14;101707.44;;;20.69;34.42
14293;BME280;62290;59.420;17.842;2022-11-15T07:07:00;101704.00;;;20.67;34.08
14293;BME280;62290;59.420;17.842;2022-11-15T07:09:47;101694.94;;;20.54;34.15
14293;BME280;62290;59.420;17.842;2022-11-15T07:12:34;101700.63;;;20.64;34.12
14293;BME280;62290;59.420;17.842;2022-11-15T07:15:23;101707.78;;;20.63;34.00
14293;BME280;62290;59.420;17.842;2022-11-15T07:18:09;101717.63;;;20.63;33.99
14293;BME280;62290;59.420;17.842;2022-11-15T07:21:02;101710.56;;;20.62;33.88
14293;BME280;62290;59.420;17.842;2022-11-15T07:23:48;101707.09;;;20.60;34.16
14293;BME280;62290;59.420;17.842;2022-11-15T07:26:35;101714.00;;;20.64;34.02
14293;BME280;62290;59.420;17.842;2022-11-15T07:29:22;101715.75;;;20.65;34.10
14293;BME280;62290;59.420;17.842;2022-11-15T07:32:09;101705.88;;;20.65;34.03
14293;BME280;62290;59.420;17.842;2022-11-15T07:34:55;101711.16;;;20.67;34.06
14293;BME280;62290;59.420;17.842;2022-11-15T07:37:43;101712.03;;;20.67;34.09
14293;BME280;62290;59.420;17.842;2022-11-15T07:40:30;101719.94;;;20.69;33.95
14293;BME280;62290;59.420;17.842;2022-11-15T07:43:17;101722.63;;;20.69;33.75
14293;BME280;62290;59.420;17.842;2022-11-15T07:46:05;101723.31;;;20.72;33.69
14293;BME280;62290;59.420;17.842;2022-11-15T07:48:54;101719.84;;;20.70;33.70
14293;BME280;62290;59.420;17.842;2022-11-15T07:51:40;101723.41;;;20.71;33.78
14293;BME280;62290;59.420;17.842;2022-11-15T07:54:28;101725.03;;;20.73;33.59
14293;BME280;62290;59.420;17.842;2022-11-15T07:57:14;101728.56;;;20.74;34.02
14293;BME280;62290;59.420;17.842;2022-11-15T08:00:01;101730.38;;;20.73;34.00
14293;BME280;62290;59.420;17.842;2022-11-15T08:02:47;101733.84;;;20.75;33.91
14293;BME280;62290;59.420;17.842;2022-11-15T08:05:35;101732.88;;;20.76;34.23
14293;BME280;62290;59.420;17.842;2022-11-15T08:08:23;101742.56;;;20.79;34.12
14293;BME280;62290;59.420;17.842;2022-11-15T08:11:10;101747.84;;;20.80;34.03
14293;BME280;62290;59.420;17.842;2022-11-15T08:13:57;101761.13;;;20.82;33.93
14293;BME280;62290;59.420;17.842;2022-11-15T08:16:43;101735.38;;;20.79;33.83
14293;BME280;62290;59.420;17.842;2022-11-15T08:19:29;101749.19;;;20.87;33.71
14293;BME280;62290;59.420;17.842;2022-11-15T08:22:16;101744.50;;;20.91;33.92
14293;BME280;62290;59.420;17.842;2022-11-15T08:25:03;101751.59;;;20.92;33.94
14293;BME280;62290;59.420;17.842;2022-11-15T08:27:52;101740.28;;;20.87;33.43
14293;BME280;62290;59.420;17.842;2022-11-15T08:30:41;101748.72;;;20.95;33.91
14293;BME280;62290;59.420;17.842;2022-11-15T08:33:31;101760.16;;;20.99;33.46
14293;BME280;62290;59.420;17.842;2022-11-15T08:36:19;101767.31;;;20.98;33.41
14293;BME280;62290;59.420;17.842;2022-11-15T08:39:06;101757.38;;;21.00;33.47
14293;BME280;62290;59.420;17.842;2022-11-15T08:41:52;101758.13;;;21.02;33.60
14293;BME280;62290;59.420;17.842;2022-11-15T08:44:40;101756.13;;;21.06;33.95
14293;BME280;62290;59.420;17.842;2022-11-15T08:47:26;101773.00;;;21.08;33.85
14293;BME280;62290;59.420;17.842;2022-11-15T08:50:12;101746.22;;;21.08;33.99
14293;BME280;62290;59.420;17.842;2022-11-15T08:53:04;101729.19;;;21.09;33.62
14293;BME280;62290;59.420;17.842;2022-11-15T08:55:51;101763.56;;;21.16;33.88
14293;BME280;62290;59.420;17.842;2022-11-15T08:58:37;101757.16;;;21.19;33.65
14293;BME280;62290;59.420;17.842;2022-11-15T09:01:25;101765.00;;;21.22;33.29
14293;BME280;62290;59.420;17.842;2022-11-15T09:04:12;101768.53;;;21.22;33.34
14293;BME280;62290;59.420;17.842;2022-11-15T09:06:58;101764.03;;;21.23;33.20
14293;BME280;62290;59.420;17.842;2022-11-15T09:09:45;101781.84;;;21.24;33.03
14293;BME280;62290;59.420;17.842;2022-11-15T09:12:31;101779.06;;;21.25;33.22
14293;BME280;62290;59.420;17.842;2022-11-15T09:15:18;101779.00;;;21.27;33.11
14293;BME280;62290;59.420;17.842;2022-11-15T09:18:06;101785.13;;;21.29;32.70
14293;BME280;62290;59.420;17.842;2022-11-15T09:20:55;101776.22;;;21.28;32.51
14293;BME280;62290;59.420;17.842;2022-11-15T09:23:41;101808.38;;;21.28;32.53
14293;BME280;62290;59.420;17.842;2022-11-15T09:26:28;101787.81;;;21.29;32.52
14293;BME280;62290;59.420;17.842;2022-11-15T09:29:14;101789.53;;;21.30;32.69
14293;BME280;62290;59.420;17.842;2022-11-15T09:32:02;101783.31;;;21.29;32.60
14293;BME280;62290;59.420;17.842;2022-11-15T09:34:50;101788.50;;;21.32;32.49
14293;BME280;62290;59.420;17.842;2022-11-15T09:37:36;101793.94;;;21.31;32.34
14293;BME280;62290;59.420;17.842;2022-11-15T09:40:23;101786.00;;;21.29;32.21
14293;BME280;62290;59.420;17.842;2022-11-15T09:43:32;101803.72;;;21.32;32.27
14293;BME280;62290;59.420;17.842;2022-11-15T09:46:30;101814.50;;;21.30;32.38
14293;BME280;62290;59.420;17.842;2022-11-15T09:49:13;101792.66;;;21.22;32.34
14293;BME280;62290;59.420;17.842;2022-11-15T09:52:07;101812.63;;;21.32;31.82
14293;BME280;62290;59.420;17.842;2022-11-15T09:54:38;101813.56;;;21.31;32.29
14293;BME280;62290;59.420;17.842;2022-11-15T09:57:30;101796.59;;;21.31;31.99
14293;BME280;62290;59.420;17.842;2022-11-15T10:00:06;101805.34;;;21.34;32.18
14293;BME280;62290;59.420;17.842;2022-11-15T10:03:06;101803.31;;;21.38;32.13
14293;BME280;62290;59.420;17.842;2022-11-15T10:05:38;101803.06;;;21.42;32.27
14293;BME280;62290;59.420;17.842;2022-11-15T10:08:20;101791.16;;;21.46;32.69
14293;BME280;62290;59.420;17.842;2022-11-15T10:10:56;101803.63;;;21.47;32.85
14293;BME280;62290;59.420;17.842;2022-11-15T10:13:46;101799.91;;;21.50;32.52
14293;BME280;62290;59.420;17.842;2022-11-15T10:19:52;101795.19;;;21.53;32.65
14293;BME280;62290;59.420;17.842;2022-11-15T10:22:27;101802.97;;;21.58;33.00
14293;BME280;62290;59.420;17.842;2022-11-15T10:25:13;101800.19;;;21.60;32.73
14293;BME280;62290;59.420;17.842;2022-11-15T10:27:45;101792.91;;;21.62;32.71
14293;BME280;62290;59.420;17.842;2022-11-15T10:30:17;101794.53;;;21.64;32.65
14293;BME280;62290;59.420;17.842;2022-11-15T10:32:46;101803.25;;;21.68;32.81
14293;BME280;62290;59.420;17.842;2022-11-15T10:35:18;101800.47;;;21.69;32.85
14293;BME280;62290;59.420;17.842;2022-11-15T10:37:47;101805.66;;;21.72;32.65
14293;BME280;62290;59.420;17.842;2022-11-15T10:40:19;101800.22;;;21.74;32.36
14293;BME280;62290;59.420;17.842;2022-11-15T10:42:48;101805.38;;;21.77;32.30
14293;BME280;62290;59.420;17.842;2022-11-15T10:45:25;101809.69;;;21.79;32.33
14293;BME280;62290;59.420;17.842;2022-11-15T10:47:53;101815.91;;;21.80;32.11
14293;BME280;62290;59.420;17.842;2022-11-15T10:50:30;101795.22;;;21.82;32.02
14293;BME280;62290;59.420;17.842;2022-11-15T10:53:00;101797.13;;;21.80;31.75
14293;BME280;62290;59.420;17.842;2022-11-15T10:55:31;101806.16;;;21.79;31.47
14293;BME280;62290;59.420;17.842;2022-11-15T10:58:04;101782.00;;;21.79;31.08
14293;BME280;62290;59.420;17.842;2022-11-15T11:00:35;101795.41;;;21.79;31.03
14293;BME280;62290;59.420;17.842;2022-11-15T11:03:27;101802.69;;;21.77;30.72
14293;BME280;62290;59.420;17.842;2022-11-15T11:06:04;101785.63;;;21.78;30.57
14293;BME280;62290;59.420;17.842;2022-11-15T11:08:33;101795.50;;;21.77;30.70
14293;BME280;62290;59.420;17.842;2022-11-15T11:11:03;101805.16;;;21.80;30.92
14293;BME280;62290;59.420;17.842;2022-11-15T11:13:34;101795.31;;;21.80;30.84
14293;BME280;62290;59.420;17.842;2022-11-15T11:16:16;101800.59;;;21.82;30.65
14293;BME280;62290;59.420;17.842;2022-11-15T11:18:51;101795.22;;;21.82;30.38
14293;BME280;62290;59.420;17.842;2022-11-15T11:21:26;101804.09;;;21.82;30.70
14293;BME280;62290;59.420;17.842;2022-11-15T11:24:08;101801.44;;;21.82;30.38
14293;BME280;62290;59.420;17.842;2022-11-15T11:26:49;101802.28;;;21.83;30.61
14293;BME280;62290;59.420;17.842;2022-11-15T11:29:41;101808.63;;;21.82;30.33
14293;BME280;62290;59.420;17.842;2022-11-15T11:32:25;101814.00;;;21.82;30.35
14293;BME280;62290;59.420;17.842;2022-11-15T11:35:05;101807.84;;;21.80;30.19
14293;BME280;62290;59.420;17.842;2022-11-15T11:37:41;101805.16;;;21.80;30.16
14293;BME280;62290;59.420;17.842;2022-11-15T11:40:24;101803.34;;;21.80;30.30
14293;BME280;62290;59.420;17.842;2022-11-15T11:43:00;101793.59;;;21.79;30.33
14293;BME280;62290;59.420;17.842;2022-11-15T11:48:50;101772.00;;;21.67;30.94
14293;BME280;62290;59.420;17.842;2022-11-15T11:51:23;101789.94;;;21.80;30.93
14293;BME280;62290;59.420;17.842;2022-11-15T11:53:55;101797.91;;;21.82;30.73
14293;BME280;62290;59.420;17.842;2022-11-15T11:56:27;101804.03;;;21.84;31.01
14293;BME280;62290;59.420;17.842;2022-11-15T11:59:02;101800.38;;;21.85;31.27
14293;BME280;62290;59.420;17.842;2022-11-15T12:01:37;101805.75;;;21.85;31.25
14293;BME280;62290;59.420;17.842;2022-11-15T12:04:11;101797.66;;;21.86;31.25
14293;BME280;62290;59.420;17.842;2022-11-15T12:06:45;101792.28;;;21.86;31.68
14293;BME280;62290;59.420;17.842;2022-11-15T12:09:18;101804.81;;;21.86;31.40
14293;BME280;62290;59.420;17.842;2022-11-15T12:11:53;101793.19;;;21.85;31.61
14293;BME280;62290;59.420;17.842;2022-11-15T12:14:34;101795.81;;;21.87;31.05
14293;BME280;62290;59.420;17.842;2022-11-15T12:17:03;101799.38;;;21.87;31.32
14293;BME280;62290;59.420;17.842;2022-11-15T12:19:32;101797.53;;;21.88;31.31
14293;BME280;62290;59.420;17.842;2022-11-15T12:22:04;101795.53;;;21.91;31.42
14293;BME280;62290;59.420;17.842;2022-11-15T12:24:38;101797.34;;;21.91;31.50
14293;BME280;62290;59.420;17.842;2022-11-15T12:27:16;101791.97;;;21.91;31.33
14293;BME280;62290;59.420;17.842;2022-11-15T12:29:55;101789.28;;;21.91;31.05
14293;BME280;62290;59.420;17.842;2022-11-15T12:32:27;101793.59;;;21.93;31.26
14293;BME280;62290;59.420;17.842;2022-11-15T12:34:56;101797.16;;;21.94;31.02
14293;BME280;62290;59.420;17.842;2022-11-15T12:37:47;101796.22;;;21.95;31.37
14293;BME280;62290;59.420;17.842;2022-11-15T12:40:28;101805.09;;;21.95;31.31
14293;BME280;62290;59.420;17.842;2022-11-15T12:43:03;101788.16;;;21.95;31.39
14293;BME280;62290;59.420;17.842;2022-11-15T12:45:35;101792.47;;;21.97;31.31
14293;BME280;62290;59.420;17.842;2022-11-15T12:55:00;101798.66;;;21.98;31.20
14293;BME280;62290;59.420;17.842;2022-11-15T12:57:40;101789.78;;;21.97;30.98
14293;BME280;62290;59.420;17.842;2022-11-15T13:00:38;101798.59;;;21.99;31.18
14293;BME280;62290;59.420;17.842;2022-11-15T13:03:27;101800.41;;;21.99;30.89
14293;BME280;62290;59.420;17.842;2022-11-15T13:06:10;101793.31;;;21.98;31.08
14293;BME280;62290;59.420;17.842;2022-11-15T13:08:58;101795.22;;;21.96;31.04
14293;BME280;62290;59.420;17.842;2022-11-15T13:11:43;101788.81;;;21.98;30.79
14293;BME280;62290;59.420;17.842;2022-11-15T13:14:41;101776.38;;;21.97;30.67
14293;BME280;62290;59.420;17.842;2022-11-15T13:17:23;101783.53;;;21.97;30.71
14293;BME280;62290;59.420;17.842;2022-11-15T13:19:57;101774.63;;;21.96;30.91
14293;BME280;62290;59.420;17.842;2022-11-15T13:22:26;101780.00;;;21.96;30.79
14293;BME280;62290;59.420;17.842;2022-11-15T13:25:15;101761.81;;;21.87;30.42
14293;BME280;62290;59.420;17.842;2022-11-15T13:27:47;101771.00;;;21.97;30.73
14293;BME280;62290;59.420;17.842;2022-11-15T13:30:20;101781.50;;;22.00;30.77
14293;BME280;62290;59.420;17.842;2022-11-15T13:32:50;101771.81;;;21.98;30.79
14293;BME280;62290;59.420;17.842;2022-11-15T13:35:21;101778.94;;;21.99;30.40
14293;BME280;62290;59.420;17.842;2022-11-15T13:37:50;101778.00;;;22.00;30.71
14293;BME280;62290;59.420;17.842;2022-11-15T13:40:22;101777.88;;;22.01;30.83
14293;BME280;62290;59.420;17.842;2022-11-15T13:42:51;101776.06;;;22.02;30.54
14293;BME280;62290;59.420;17.842;2022-11-15T13:45:19;101777.88;;;22.01;30.60
14293;BME280;62290;59.420;17.842;2022-11-15T13:47:54;101780.47;;;22.03;30.70
14293;BME280;62290;59.420;17.842;2022-11-15T13:50:26;101798.28;;;22.04;30.43
14293;BME280;62290;59.420;17.842;2022-11-15T13:52:58;101790.22;;;22.04;30.38
14293;BME280;62290;59.420;17.842;2022-11-15T13:55:29;101801.09;;;22.02;30.69
14293;BME280;62290;59.420;17.842;2022-11-15T13:58:00;101795.72;;;22.02;30.69
14293;BME280;62290;59.420;17.842;2022-11-15T14:00:35;101801.16;;;22.01;30.47
14293;BME280;62290;59.420;17.842;2022-11-15T14:03:21;101801.94;;;22.03;30.26
14293;BME280;62290;59.420;17.842;2022-11-15T14:06:03;101799.34;;;22.01;30.74
14293;BME280;62290;59.420;17.842;2022-11-15T14:08:33;101804.63;;;22.03;30.35
14293;BME280;62290;59.420;17.842;2022-11-15T14:11:07;101813.53;;;22.03;30.23
14293;BME280;62290;59.420;17.842;2022-11-15T14:13:35;101809.13;;;22.02;30.25
14293;BME280;62290;59.420;17.842;2022-11-15T14:16:14;101811.72;;;22.04;30.37
14293;BME280;62290;59.420;17.842;2022-11-15T14:18:46;101813.53;;;22.03;30.29
14293;BME280;62290;59.420;17.842;2022-11-15T14:21:15;101822.56;;;22.02;30.44
14293;BME280;62290;59.420;17.842;2022-11-15T14:23:43;101813.72;;;22.00;30.64
14293;BME280;62290;59.420;17.842;2022-11-15T14:26:26;101794.78;;;21.89;30.57
14293;BME280;62290;59.420;17.842;2022-11-15T14:28:55;101813.81;;;21.99;30.67